createdAt,value
2022-12-14T00:02:26.467Z,40.8
2022-12-14T00:07:27.154Z,40.8
2022-12-14T00:12:27.571Z,40.7
2022-12-14T00:17:27.952Z,40.6
2022-12-14T00:22:28.325Z,40.6
2022-12-14T00:27:28.918Z,40.6
2022-12-14T00:32:29.314Z,40.5
2022-12-14T00:37:29.925Z,40.4
2022-12-14T00:42:30.292Z,40.4
2022-12-14T00:47:31.610Z,40.4
2022-12-14T00:52:34.213Z,40.3
2022-12-14T00:57:34.587Z,40.2
2022-12-14T01:02:35.189Z,40.2
2022-12-14T01:07:35.646Z,40.2
2022-12-14T01:12:36.256Z,40.1
2022-12-14T01:17:36.604Z,40.1
2022-12-14T01:22:36.951Z,40.1
2022-12-14T01:27:37.317Z,40
2022-12-14T01:32:37.700Z,40
2022-12-14T01:37:38.048Z,39.9
2022-12-14T01:42:38.625Z,39.9
2022-12-14T01:47:39.188Z,39.8
2022-12-14T01:52:39.526Z,39.7
2022-12-14T01:57:39.875Z,39.7
2022-12-14T02:02:40.278Z,39.7
2022-12-14T02:07:40.684Z,39.6
2022-12-14T02:12:41.260Z,39.6
2022-12-14T02:17:41.812Z,39.6
2022-12-14T02:22:42.198Z,39.5
2022-12-14T02:27:42.568Z,39.5
2022-12-14T02:32:42.899Z,39.4
2022-12-14T02:37:43.205Z,39.4
2022-12-14T02:42:43.528Z,39.4
2022-12-14T02:47:44.073Z,39.3
2022-12-14T02:52:44.400Z,39.2
2022-12-14T02:57:44.977Z,39.2
2022-12-14T03:02:45.432Z,39.2
2022-12-14T03:07:45.891Z,39.1
2022-12-14T03:12:49.458Z,39.1
2022-12-14T03:17:49.779Z,39.1
2022-12-14T03:22:50.049Z,39
2022-12-14T03:27:50.367Z,39
2022-12-14T03:32:50.679Z,38.9
2022-12-14T03:37:53.204Z,38.9
2022-12-14T03:42:53.728Z,38.9
2022-12-14T03:47:54.414Z,38.8
2022-12-14T03:52:54.725Z,38.8
2022-12-14T03:57:55.030Z,38.7
2022-12-14T04:02:55.401Z,38.7
2022-12-14T04:07:55.756Z,38.7
2022-12-14T04:12:56.031Z,38.6
2022-12-14T04:17:56.342Z,38.6
2022-12-14T04:22:56.633Z,38.6
2022-12-14T04:27:56.965Z,38.6
2022-12-14T04:32:57.331Z,38.5
2022-12-14T04:37:57.710Z,38.5
2022-12-14T04:42:58.012Z,38.4
2022-12-14T04:47:58.334Z,38.4
2022-12-14T04:52:58.696Z,38.4
2022-12-14T04:57:58.976Z,38.3
2022-12-14T05:02:59.331Z,38.3
2022-12-14T05:07:59.686Z,38.2
2022-12-14T05:12:59.957Z,38.2
2022-12-14T05:18:00.469Z,38.2
2022-12-14T05:23:00.949Z,38.1
2022-12-14T05:28:01.286Z,38.1
2022-12-14T05:33:01.546Z,38.1
2022-12-14T05:38:01.791Z,38.1
2022-12-14T05:43:02.059Z,38
2022-12-14T05:48:02.356Z,38
2022-12-14T05:53:02.594Z,37.9
2022-12-14T05:58:02.831Z,37.9
2022-12-14T06:03:03.090Z,37.9
2022-12-14T06:08:03.409Z,37.8
2022-12-14T06:13:03.648Z,37.8
2022-12-14T06:18:03.875Z,37.7
2022-12-14T06:23:04.122Z,37.7
2022-12-14T06:28:04.636Z,37.7
2022-12-14T06:33:05.112Z,37.7
2022-12-14T06:38:05.574Z,37.6
2022-12-14T06:43:05.811Z,37.6
2022-12-14T06:48:06.253Z,37.6
2022-12-14T06:53:06.708Z,37.6
2022-12-14T06:58:07.189Z,37.5
2022-12-14T07:03:07.705Z,37.5
2022-12-14T07:08:08.244Z,37.4
2022-12-14T07:13:08.739Z,37.4
2022-12-14T07:18:09.211Z,37.4
2022-12-14T07:23:09.650Z,37.4
2022-12-14T07:28:10.146Z,37.3
2022-12-14T07:33:10.378Z,37.3
2022-12-14T07:38:10.850Z,37.2
2022-12-14T07:43:11.317Z,37.2
2022-12-14T07:48:11.799Z,37.2
2022-12-14T07:53:12.253Z,37.2
2022-12-14T07:58:12.723Z,37.1
2022-12-14T08:03:13.224Z,37.1
2022-12-14T08:08:13.765Z,37.1
2022-12-14T08:13:14.240Z,37.1
2022-12-14T08:18:14.698Z,37
2022-12-14T08:23:16.829Z,37
2022-12-14T08:28:17.636Z,36.9
2022-12-14T08:33:18.113Z,36.9
2022-12-14T08:38:18.623Z,36.9
2022-12-14T08:43:23.463Z,36.9
2022-12-14T08:48:25.285Z,36.8
2022-12-14T08:53:25.762Z,36.8
2022-12-14T08:58:26.041Z,36.7
2022-12-14T09:03:26.970Z,36.7
2022-12-14T09:08:27.630Z,36.7
2022-12-14T09:13:28.540Z,36.7
2022-12-14T09:18:29.638Z,36.6
2022-12-14T09:23:30.625Z,36.6
2022-12-14T09:28:31.237Z,36.6
2022-12-14T09:33:32.457Z,36.6
2022-12-14T09:38:33.233Z,36.6
2022-12-14T09:43:36.844Z,36.5
2022-12-14T09:48:37.803Z,36.5
2022-12-14T09:53:38.024Z,36.4
2022-12-14T09:58:38.489Z,36.4
2022-12-14T10:03:39.058Z,36.4
2022-12-14T10:08:39.598Z,36.4
2022-12-14T10:13:40.079Z,36.3
2022-12-14T10:18:59.299Z,36.3
2022-12-14T10:24:00.391Z,36.2
2022-12-14T11:18:02.659Z,36
2022-12-14T11:23:02.995Z,35.9
2022-12-14T11:28:03.435Z,35.9
2022-12-14T11:33:03.861Z,35.9
2022-12-14T11:38:04.171Z,35.9
2022-12-14T11:43:04.423Z,35.9
2022-12-14T11:48:05.062Z,35.9
2022-12-14T11:53:10.932Z,35.8
2022-12-14T11:58:11.465Z,35.8
2022-12-14T12:03:11.792Z,35.7
2022-12-14T12:08:12.174Z,35.7
2022-12-14T12:13:12.567Z,35.7
2022-12-14T12:18:13.040Z,35.7
2022-12-14T12:23:13.227Z,35.7
2022-12-14T12:28:13.506Z,35.6
2022-12-14T12:33:13.773Z,35.6
2022-12-14T12:38:14.235Z,35.6
2022-12-14T12:43:14.675Z,35.6
2022-12-14T12:48:15.092Z,35.6
2022-12-14T12:53:15.304Z,35.5
2022-12-14T12:58:15.504Z,35.5
2022-12-14T13:03:16.051Z,35.4
2022-12-14T13:08:16.303Z,35.4
2022-12-14T13:13:16.715Z,35.4
2022-12-14T13:18:34.101Z,35.4
2022-12-14T13:23:45.423Z,35.3
2022-12-14T13:28:45.920Z,35.3
2022-12-14T13:33:46.142Z,35.2
2022-12-14T13:38:51.389Z,35.2
2022-12-14T13:43:51.596Z,35.2
2022-12-14T13:48:52.025Z,35.2
2022-12-14T13:53:52.690Z,35.2
2022-12-14T13:58:52.876Z,35.1
2022-12-14T14:03:54.426Z,35.1
2022-12-14T14:08:55.016Z,35.1
2022-12-14T14:13:55.441Z,35.1
2022-12-14T14:18:57.310Z,34.6
2022-12-14T14:23:59.419Z,34.3
2022-12-14T14:29:01.223Z,33.7
2022-12-14T14:34:03.297Z,33.7
2022-12-14T14:39:14.502Z,33.4
2022-12-14T14:44:26.356Z,33.4
2022-12-14T14:49:28.381Z,33.4
2022-12-14T15:00:02.228Z,33.3
2022-12-14T15:05:40.795Z,33.2
2022-12-14T15:10:43.180Z,33.2
2022-12-14T15:15:45.197Z,33.2
2022-12-14T15:20:47.192Z,33.2
2022-12-14T15:25:48.983Z,33.2
2022-12-14T15:30:50.978Z,33.2
2022-12-14T15:35:53.187Z,33.1
2022-12-14T15:40:55.221Z,33.1
2022-12-14T15:46:02.797Z,33.1
2022-12-14T15:51:04.765Z,33.1
2022-12-14T15:56:11.623Z,33.1
2022-12-14T16:01:14.154Z,33.1
2022-12-14T16:06:16.031Z,33
2022-12-14T16:11:17.835Z,33
2022-12-14T16:16:19.872Z,33
2022-12-14T16:21:22.145Z,32.9
2022-12-14T16:26:24.212Z,32.9
2022-12-14T16:31:26.309Z,32.9
2022-12-14T16:36:28.394Z,32.9
2022-12-14T16:41:30.338Z,32.9
2022-12-14T16:46:32.177Z,32.9
2022-12-14T16:51:58.635Z,32.9
2022-12-14T16:57:07.379Z,34.8
2022-12-14T17:02:10.418Z,37.2
2022-12-14T17:07:13.324Z,40
2022-12-14T17:12:14.019Z,42.1
2022-12-14T17:17:14.482Z,42.5
2022-12-14T17:22:15.168Z,42.5
2022-12-14T17:27:15.783Z,42.5
2022-12-14T17:32:16.473Z,42.5
2022-12-14T17:37:17.181Z,42.4
2022-12-14T17:42:17.607Z,43.4
2022-12-14T17:47:18.490Z,43.3
2022-12-14T17:52:19.255Z,44.3
2022-12-14T17:57:19.754Z,44.7
2022-12-14T18:02:20.726Z,45.4
2022-12-14T18:07:21.665Z,45.1
2022-12-14T18:12:23.719Z,43.8
2022-12-14T18:17:24.853Z,39.2
2022-12-14T18:22:25.487Z,38.1
2022-12-14T18:27:26.008Z,37.7
2022-12-14T18:32:26.536Z,37.5
2022-12-14T18:37:31.264Z,37.3
2022-12-14T18:42:32.992Z,37.1
2022-12-14T18:47:41.492Z,36.9
2022-12-14T18:52:42.754Z,36.7
2022-12-14T18:57:43.299Z,36.6
2022-12-14T19:02:43.999Z,36.4
2022-12-14T19:07:44.864Z,32.1
2022-12-14T19:12:46.672Z,31.1
2022-12-14T19:17:48.675Z,30.9
2022-12-14T19:22:50.680Z,30.8
2022-12-14T19:33:24.545Z,30.7
2022-12-14T19:38:26.580Z,30.6
2022-12-14T19:43:28.960Z,30.6
2022-12-14T19:48:31.057Z,30.5
2022-12-14T19:53:33.483Z,30.5
2022-12-14T19:58:35.721Z,30.4
2022-12-14T20:03:38.156Z,30.4
2022-12-14T20:08:40.388Z,30.4
2022-12-14T20:13:42.428Z,30.4
2022-12-14T20:18:44.368Z,30.3
2022-12-14T20:23:46.378Z,29.9
2022-12-14T20:28:48.415Z,29.8
2022-12-14T20:33:50.851Z,29.8
2022-12-14T20:38:52.855Z,29.8
2022-12-14T20:43:55.038Z,29.7
2022-12-14T20:48:56.750Z,29.7
2022-12-14T20:53:58.489Z,29.7
2022-12-14T20:59:00.447Z,29.7
2022-12-14T21:04:02.472Z,29.6
2022-12-14T21:09:04.244Z,29.6
2022-12-14T21:14:06.270Z,29.6
2022-12-14T21:19:08.229Z,29.6
2022-12-14T21:24:10.175Z,29.6
2022-12-14T21:29:12.191Z,29.6
2022-12-14T21:34:14.184Z,29.6
2022-12-14T21:39:16.123Z,29.4
2022-12-14T21:44:18.101Z,29.3
2022-12-14T21:49:19.818Z,29.3
2022-12-14T21:54:21.726Z,29.3
2022-12-14T21:59:23.443Z,29.3
2022-12-14T22:04:25.132Z,29.3
2022-12-14T22:09:26.881Z,29.3
2022-12-14T22:14:28.613Z,29.3
2022-12-14T22:19:30.516Z,29.3
2022-12-14T22:24:32.241Z,29.3
2022-12-14T22:29:34.007Z,29.3
2022-12-14T22:34:35.969Z,29.2
2022-12-14T22:39:37.699Z,29.2
2022-12-14T22:44:39.428Z,29.2
2022-12-14T22:49:41.178Z,29.2
2022-12-14T22:54:43.136Z,29.2
2022-12-14T22:59:51.324Z,29.2
2022-12-14T23:04:53.125Z,29.1
2022-12-14T23:09:54.835Z,29.1
2022-12-14T23:14:56.782Z,29.1
2022-12-14T23:20:02.766Z,29.1
2022-12-14T23:25:06.064Z,29.1
2022-12-14T23:30:07.829Z,29.1
2022-12-14T23:35:09.754Z,29.1
2022-12-14T23:40:11.426Z,29.1
2022-12-14T23:45:13.367Z,29.1
2022-12-14T23:50:15.091Z,29.1
2022-12-14T23:55:16.797Z,29.1
